Aviation Digital Data Service (ADDS)

Output produced by METARs form (1908 UTC 18 June 2019)
found at http://www.aviationweather.gov/metar/data/
 
SPHY 181900Z /////KT CAVOK 17/01 Q1036 RMK BIRD HAZARD RWY03/21 PP000
SPHY 181700Z 1818/1918 VRB02KT CAVOK TX18/1819Z TNM04/1911Z 
     TEMPO 1818/1822 36012KT
       
SPQU 181900Z 27010KT CAVOK 23/M06 Q1025 NOSIG RMK PP000
SPQU 181700Z 1818/1918 27007KT CAVOK TX22/1817Z TN10/1910Z 
     BECMG 1823/1901 06005KT
       
SPHO 181900Z VRB02KT 9999 FEW050 23/03 Q1027 RMK PP000
SPHO 181700Z 1818/1918 VRB03KT 9999 FEW040 TX23/1819Z TN10/1911Z
       
SPJR 181900Z 07009KT 030V140 9999 SCT023 SCT037 20/07 Q1027 RMK PP000
SPJR 181700Z 1818/1918 15006KT 9999 SCT026 BKN046 TX23/1819Z TN07/1911Z 
     BECMG 1820/1822 06012KT SCT023 BKN043 
     FM190100 VRB02KT 9999 FEW025
       
SPPY 181900Z 10015KT 9999 SCT020 BKN050 17/09 Q1028 RMK PP000
SPHI 181900Z 19013KT 9999 FEW022 23/16 Q1011 RMK BIRD HAZARD RWY 19/01 PP000
SPHI 181700Z 1818/1918 18012KT 9999 SCT020 TX24/1819Z TN17/1911Z 
     BECMG 1820/1821 18017KT 
     FM190400 18008KT 9999 BKN014 
     TEMPO 1911/1914 OVC009
       
SPEO 181900Z 19012KT 9999 BKN012 OVC100 18/16 Q1012 RMK PP000
SPZO 181900Z 29005KT 260V350 9999 SCT050 22/M01 Q1030 NOSIG RMK BIRD HAZARD RWY 28 PP000
TAF SPZO 181700Z 1818/1918 01003KT 9999 FEW050 TX22/1819Z TN03/1911Z 
     TEMPO 1819/1823 27012KT
       
SPNC 181900Z 06010KT 9999 FEW040 SCT100 27/13 Q1021 RMK PP000
SPNC 181700Z 1818/1918 06014KT 9999 FEW040 SCT120 TX28/1819Z TN13/1911Z 
     BECMG 1823/1901 VRB02KT
       
SPLO 181900Z /////KT 9999 BKN030 18/13 Q1012 RMK PP000
SPLO 181700Z 1818/1918 15010KT CAVOK TX20/1819Z TN13/1911Z 
     BECMG 1823/1901 VRB02KT BKN030 
     TEMPO 1911/1914 5000 BR BKN015 OVC030
       
SPQT 181900Z VRB03KT 9999 VCSH BKN020 31/24 Q1012 NOSIG RMK BIRD HAZARD PP000
TAF SPQT 181700Z 1818/1918 18003KT 9999 BKN015 BKN100 TX29/1819Z TN23/1911Z 
     TEMPO 1900/1904 06010KT 4000 SHRA BKN015 BKN070 
     PROB40 
     TEMPO 1909/1912 00000KT 3000 BCFG BKN005
       
SPJI 181900Z 00000KT 9999 FEW023 30/23 Q1022 RMK PP000
SPJI 181700Z 1818/1918 10003KT 9999 SCT020 SCT100 TX28/1819Z TN18/1911Z 
     BECMG 1822/1900 00000KT BKN020 BKN080 
     TEMPO 1909/1912 8000 OVC012
       
SPJL 181900Z 26004KT CAVOK 17/M08 Q1036 RMK PP000
TAF COR SPJL 181742Z 1818/1918 35006KT CAVOK TX17/1819Z TNM03/1911Z 
     FM182300 VRB03KT 9999 SCT015
       
SPSO 181900Z 29007KT 270V330 6000 SCT007 OVC020 18/15 Q1012 RMK BR BIRD HAZARD RWY 22/04 PP000
SPSO 181700Z 1818/1918 27007KT 7000 SCT011 OVC015 TX21/1819Z TN13/1911Z 
     TEMPO 1818/1820 4500 BR 
     BECMG 1821/1823 25011KT BKN020 
     FM190200 VRB03KT 4500 BR OVC011
       
SPCL 181900Z 14003KT 9999 BKN030 30/22 Q1014 RMK BIRD HAZARD RWY 02/20 PP000
SPCL 181700Z 1818/1918 35003KT 9999 BKN020 TX31/1820Z TN22/1911Z 
     BECMG 1900/1902 VRB02KT SCT015 
     TEMPO 1909/1912 00000KT 5000 BR BKN012
       
SPTU 181900Z 31005KT 280V350 9999 BKN020 31/22 Q1012 RMK HAZARD RWY 01/19 PP000
SPTU 181700Z 1818/1918 27003KT 9999 SCT015 TX32/1819Z TN20/1911Z
       
SPTN 181900Z 22006KT 170V250 CAVOK 20/10 Q1012 RMK PP000
SPTN 181700Z 1818/1918 23006KT CAVOK TX20/1819Z TN14/1910Z 
     FM190100 VRB02KT 9999 OVC020
       
SPYL 181900Z 18014KT CAVOK 27/17 Q1010 RMK BIRD HAZARD RWY 17/35 PP000
SPYL 181700Z 1818/1918 21013KT CAVOK TX31/1819Z TN16/1911Z 
     BECMG 1908/1910 14020KT
       
SPST 181900Z 24003KT 9999 SCT020 32/21 Q1014 RMK BIRD HAZARD RWY 17/35 PP000
SPST 181700Z 1818/1918 07004KT 9999 SCT020 SCT100 TX30/1819Z TN21/1811Z 
     FM190000 00000KT 9999 SCT020 
     TEMPO 1911/1913 5000 BR SCT012 BKN070 
     BECMG 1914/1916 15003KT SCT015
       
SPGM 181900Z 00000KT 9999 FEW030 29/21 Q1016 RMK PP000
SPGM 181700Z 1818/1918 35004KT 9999 SCT025 TX29/1819Z TN20/1911Z 
     BECMG 1823/1901 00000KT SCT020 BKN100 
     TEMPO 1911/1914 3000 BR SCT012 BKN060
       
SPRU 181900Z 16008KT 9999 OVC013 18/16 Q1012 RMK PP000
SPRU 181700Z 1818/1918 16011KT 8000 OVC014 TX21/1819Z TN16/1911Z 
     TEMPO 1820/1823 BKN017 
     BECMG 1901/1903 14007KT 
     BECMG 1905/1908 5000 BR OVC009 
     TEMPO 1910/1913 2900 BR OVC003
       
SPME 181900Z 35010KT 320V030 9999 SCT014 SCT020 28/21 Q1009 RMK BIRD HAZARD RWY 32/14 PP000
TAF SPME 181700Z 1818/1918 35008KT 9999 FEW014 BKN020 TX29/1819Z TN21/1911Z 
     BECMG 1820/1822 BKN013 
     FM190000 26004KT 9999 SCT012 BKN014 
     TEMPO 1911/1913 12003KT 8000
       
SPMS 181900Z 05003KT 9999 FEW015 33/25 Q1013 RMK BIRD HAZARD RWY 09/27 PP000
SPMS 181700Z 1818/1918 06003KT 9999 SCT015 TX33/1820Z TN22/1911Z 
     TEMPO 1823/1903 03010KT 5000 SHRA BKN012 FEW020TCU 
     PROB30 
     TEMPO 1909/1912 00000KT 1000 BR BKN005